createdAt,value
2018-01-02T00:01:17.096Z,68.24
2018-01-02T00:03:44.694Z,68.26
2018-01-02T00:06:12.361Z,67.90
2018-01-02T00:08:39.970Z,68.32
2018-01-02T00:11:07.608Z,68.20
2018-01-02T00:13:35.202Z,68.23
2018-01-02T00:16:02.802Z,68.29
2018-01-02T00:18:30.419Z,68.22
2018-01-02T00:20:58.029Z,68.19
2018-01-02T00:23:25.651Z,68.27
2018-01-02T00:25:53.248Z,68.12
2018-01-02T00:28:21.716Z,68.27
2018-01-02T00:30:49.340Z,68.44
2018-01-02T00:33:16.940Z,67.82
2018-01-02T00:35:44.576Z,67.51
2018-01-02T00:38:12.166Z,67.56
2018-01-02T00:40:40.048Z,67.78
2018-01-02T00:43:08.022Z,67.95
2018-01-02T00:45:35.622Z,68.00
2018-01-02T00:48:03.293Z,68.34
2018-01-02T00:50:30.888Z,68.65
2018-01-02T00:52:58.470Z,68.48
2018-01-02T00:55:26.090Z,69.07
2018-01-02T00:57:53.712Z,69.54
2018-01-02T01:00:21.364Z,69.86
2018-01-02T01:02:48.955Z,70.43
2018-01-02T01:05:16.544Z,70.43
2018-01-02T01:07:44.158Z,70.57
2018-01-02T01:10:12.011Z,71.57
2018-01-02T01:12:39.655Z,71.82
2018-01-02T01:15:07.246Z,72.32
2018-01-02T01:17:34.879Z,73.68
2018-01-02T01:20:02.565Z,75.33
2018-01-02T01:22:31.346Z,75.51
2018-01-02T01:24:58.982Z,76.79
2018-01-02T01:27:26.578Z,77.16
2018-01-02T01:29:54.487Z,78.19
2018-01-02T01:32:22.091Z,79.10
2018-01-02T01:34:49.976Z,79.33
2018-01-02T01:37:17.620Z,79.78
2018-01-02T01:39:45.203Z,80.53
2018-01-02T01:42:12.788Z,80.59
2018-01-02T01:44:40.723Z,80.02
2018-01-02T01:47:08.316Z,80.39
2018-01-02T01:49:36.030Z,80.79
2018-01-02T01:52:03.915Z,80.75
2018-01-02T01:54:31.533Z,80.63
2018-01-02T01:56:59.137Z,80.97
2018-01-02T01:59:26.716Z,81.52
2018-01-02T02:01:54.406Z,81.81
2018-01-02T02:04:22.034Z,81.94
2018-01-02T02:06:49.619Z,82.12
2018-01-02T02:09:17.552Z,81.62
2018-01-02T02:11:45.123Z,82.37
2018-01-02T02:14:12.714Z,82.31
2018-01-02T02:16:40.325Z,82.77
2018-01-02T02:19:08.208Z,82.86
2018-01-02T02:21:35.830Z,83.65
2018-01-02T02:24:10.151Z,83.86
2018-01-02T02:26:37.778Z,84.07
2018-01-02T02:29:05.391Z,84.34
2018-01-02T02:31:33.286Z,85.25
2018-01-02T02:34:00.863Z,85.36
2018-01-02T02:36:28.542Z,85.52
2018-01-02T02:38:56.141Z,85.41
2018-01-02T02:41:23.724Z,85.67
2018-01-02T02:43:51.362Z,85.62
2018-01-02T02:46:18.961Z,85.29
2018-01-02T02:48:46.585Z,85.22
2018-01-02T02:51:14.163Z,85.25
2018-01-02T02:53:41.761Z,85.35
2018-01-02T02:56:09.364Z,85.64
2018-01-02T02:58:37.280Z,85.65
2018-01-02T03:01:04.892Z,85.92
2018-01-02T03:03:32.498Z,85.38
2018-01-02T03:06:00.093Z,85.30
2018-01-02T03:08:27.701Z,85.41
2018-01-02T03:10:55.855Z,85.40
2018-01-02T03:13:23.485Z,86.01
2018-01-02T03:15:51.065Z,86.08
2018-01-02T03:18:18.653Z,85.32
2018-01-02T03:20:46.291Z,85.32
2018-01-02T03:23:14.217Z,85.27
2018-01-02T03:25:41.845Z,85.79
2018-01-02T03:28:09.460Z,85.80
2018-01-02T03:30:37.064Z,85.89
2018-01-02T03:33:04.683Z,85.70
2018-01-02T03:35:32.271Z,86.92
2018-01-02T03:38:00.200Z,87.14
2018-01-02T03:40:27.784Z,87.17
2018-01-02T03:42:55.626Z,87.16
2018-01-02T03:45:23.247Z,86.31
2018-01-02T03:47:50.851Z,86.19
2018-01-02T03:50:18.496Z,86.64
2018-01-02T03:52:46.095Z,87.20
2018-01-02T03:55:13.700Z,87.05
2018-01-02T03:57:41.317Z,87.11
2018-01-02T04:00:08.920Z,86.92
2018-01-02T04:02:36.540Z,86.79
2018-01-02T04:05:04.178Z,86.28
2018-01-02T04:07:31.758Z,86.22
2018-01-02T04:09:59.395Z,86.09
2018-01-02T04:12:27.268Z,86.25
2018-01-02T04:14:54.890Z,86.60
2018-01-02T04:17:22.484Z,86.50
2018-01-02T04:19:50.048Z,86.73
2018-01-02T04:22:17.660Z,87.39
2018-01-02T04:24:45.264Z,87.03
2018-01-02T04:27:12.890Z,86.56
2018-01-02T04:29:40.484Z,86.93
2018-01-02T04:32:08.089Z,86.85
2018-01-02T04:34:35.709Z,86.60
2018-01-02T04:37:03.698Z,86.84
2018-01-02T04:39:31.336Z,86.80
2018-01-02T04:41:58.925Z,86.89
2018-01-02T04:44:26.538Z,87.37
2018-01-02T04:46:54.141Z,87.17
2018-01-02T04:49:21.723Z,87.07
2018-01-02T04:51:49.340Z,87.27
2018-01-02T04:54:17.232Z,87.46
2018-01-02T04:56:44.855Z,87.52
2018-01-02T04:59:12.765Z,87.15
2018-01-02T05:01:40.389Z,86.69
2018-01-02T05:04:08.043Z,86.68
2018-01-02T05:06:35.627Z,86.51
2018-01-02T05:09:03.243Z,86.71
2018-01-02T05:11:30.860Z,87.46
2018-01-02T05:13:58.451Z,87.69
2018-01-02T05:16:26.105Z,87.68
2018-01-02T05:18:53.725Z,86.61
2018-01-02T05:21:21.314Z,86.48
2018-01-02T05:23:48.940Z,86.58
2018-01-02T05:26:16.522Z,86.75
2018-01-02T05:28:44.163Z,87.03
2018-01-02T05:31:11.742Z,86.97
2018-01-02T05:33:39.375Z,87.10
2018-01-02T05:36:07.300Z,87.12
2018-01-02T05:38:34.883Z,86.59
2018-01-02T05:41:02.517Z,86.92
2018-01-02T05:43:30.392Z,87.20
2018-01-02T05:45:58.172Z,87.37
2018-01-02T05:48:25.801Z,87.46
2018-01-02T05:50:53.797Z,87.47
2018-01-02T05:53:21.425Z,87.37
2018-01-02T05:55:49.023Z,87.25
2018-01-02T05:58:16.612Z,87.12
2018-01-02T06:00:44.221Z,87.36
2018-01-02T06:03:11.812Z,87.42
2018-01-02T06:05:39.432Z,87.34
2018-01-02T06:08:07.034Z,87.29
2018-01-02T06:10:34.864Z,87.25
2018-01-02T06:13:02.503Z,87.17
2018-01-02T06:15:30.121Z,87.21
2018-01-02T06:17:57.759Z,87.41
2018-01-02T06:20:25.648Z,87.47
2018-01-02T06:22:53.240Z,87.51
2018-01-02T06:25:20.880Z,87.40
2018-01-02T06:27:48.483Z,87.85
2018-01-02T06:30:16.516Z,87.52
2018-01-02T06:32:44.105Z,87.40
2018-01-02T06:35:11.715Z,87.60
2018-01-02T06:37:39.399Z,87.48
2018-01-02T06:40:06.993Z,86.17
2018-01-02T06:42:34.621Z,86.21
2018-01-02T06:45:02.208Z,86.19
2018-01-02T06:47:29.843Z,86.63
2018-01-02T06:49:57.507Z,86.36
2018-01-02T06:52:25.096Z,86.24
2018-01-02T06:54:52.731Z,85.06
2018-01-02T06:57:20.696Z,84.65
2018-01-02T06:59:48.313Z,83.45
2018-01-02T07:02:15.927Z,82.84
2018-01-02T07:04:43.502Z,83.58
2018-01-02T07:07:11.141Z,83.98
2018-01-02T07:09:38.726Z,83.59
2018-01-02T07:12:06.355Z,82.40
2018-01-02T07:14:35.757Z,81.65
2018-01-02T07:17:03.356Z,82.70
2018-01-02T07:19:30.975Z,82.37
2018-01-02T07:21:58.570Z,82.43
2018-01-02T07:24:26.452Z,82.73
2018-01-02T07:26:54.128Z,83.21
2018-01-02T07:29:21.726Z,83.77
2018-01-02T07:31:49.344Z,84.54
2018-01-02T07:34:16.924Z,84.53
2018-01-02T07:36:44.521Z,84.51
2018-01-02T07:39:12.407Z,85.39
2018-01-02T07:41:40.013Z,83.79
2018-01-02T07:44:07.635Z,84.50
2018-01-02T07:46:35.233Z,84.12
2018-01-02T07:49:02.852Z,83.70
2018-01-02T07:51:30.475Z,84.74
2018-01-02T07:53:58.073Z,84.90
2018-01-02T07:56:26.035Z,84.84
2018-01-02T07:58:53.629Z,84.64
2018-01-02T08:01:21.362Z,84.47
2018-01-02T08:03:48.984Z,84.77
2018-01-02T08:06:16.585Z,84.77
2018-01-02T08:08:44.243Z,84.40
2018-01-02T08:11:12.123Z,84.13
2018-01-02T08:13:39.832Z,84.45
2018-01-02T08:16:07.764Z,84.61
2018-01-02T08:18:35.343Z,84.78
2018-01-02T08:21:03.026Z,84.70
2018-01-02T08:23:30.607Z,84.51
2018-01-02T08:25:58.252Z,84.68
2018-01-02T08:28:25.886Z,85.35
2018-01-02T08:30:53.487Z,85.10
2018-01-02T08:33:21.172Z,85.00
2018-01-02T08:35:48.787Z,85.16
2018-01-02T08:38:16.375Z,85.15
2018-01-02T08:40:44.388Z,85.12
2018-01-02T08:43:12.018Z,85.34
2018-01-02T08:45:39.660Z,85.04
2018-01-02T08:48:07.237Z,85.64
2018-01-02T08:50:34.906Z,86.31
2018-01-02T08:53:02.525Z,86.21
2018-01-02T08:55:31.844Z,86.14
2018-01-02T08:57:59.979Z,85.95
2018-01-02T09:00:27.656Z,86.33
2018-01-02T09:02:55.283Z,85.80
2018-01-02T09:05:23.276Z,85.63
2018-01-02T09:07:50.888Z,85.32
2018-01-02T09:10:18.528Z,85.36
2018-01-02T09:12:47.958Z,84.81
2018-01-02T09:15:15.615Z,84.54
2018-01-02T09:17:43.286Z,84.57
2018-01-02T09:20:10.901Z,84.76
2018-01-02T09:22:38.987Z,85.13
2018-01-02T09:25:06.620Z,85.81
2018-01-02T09:27:34.216Z,85.72
2018-01-02T09:30:01.856Z,85.59
2018-01-02T09:32:29.451Z,85.33
2018-01-02T09:34:57.144Z,85.13
2018-01-02T09:37:24.758Z,85.30
2018-01-02T09:39:52.422Z,85.21
2018-01-02T09:42:20.064Z,84.82
2018-01-02T09:44:47.700Z,84.75
2018-01-02T09:47:15.326Z,84.73
2018-01-02T09:49:42.942Z,84.43
2018-01-02T09:52:10.561Z,84.21
2018-01-02T09:54:38.185Z,84.76
2018-01-02T09:57:05.781Z,85.04
2018-01-02T09:59:33.426Z,85.40
2018-01-02T10:02:01.119Z,85.90
2018-01-02T10:04:28.750Z,85.73
2018-01-02T10:06:56.797Z,85.60
2018-01-02T10:09:24.404Z,85.49
2018-01-02T10:11:52.031Z,85.60
2018-01-02T10:14:19.677Z,85.62
2018-01-02T10:16:47.264Z,85.83
2018-01-02T10:19:14.906Z,85.71
2018-01-02T10:21:42.544Z,85.97
2018-01-02T10:24:10.155Z,85.84
2018-01-02T10:26:37.803Z,85.85
2018-01-02T10:29:05.468Z,85.87
2018-01-02T10:31:33.112Z,85.79
2018-01-02T10:34:00.705Z,85.90
2018-01-02T10:36:28.311Z,86.05
2018-01-02T10:38:55.942Z,87.01
2018-01-02T10:41:23.575Z,87.09
2018-01-02T10:43:51.218Z,87.43
2018-01-02T10:46:18.873Z,87.57
2018-01-02T10:48:46.513Z,87.90
2018-01-02T10:51:14.133Z,87.76
2018-01-02T10:53:41.727Z,87.58
2018-01-02T10:56:09.372Z,87.11
2018-01-02T10:58:36.996Z,87.16
2018-01-02T11:01:04.619Z,87.38
2018-01-02T11:03:32.240Z,87.21
2018-01-02T11:06:01.023Z,87.02
2018-01-02T11:08:28.687Z,87.58
2018-01-02T11:13:58.428Z,87.64
2018-01-02T11:16:26.056Z,88.11
2018-01-02T11:18:53.660Z,88.34
2018-01-02T11:21:21.888Z,88.04
2018-01-02T11:23:49.541Z,87.52
2018-01-02T11:26:17.185Z,87.65
2018-01-02T11:28:44.783Z,87.77
2018-01-02T11:31:12.399Z,87.58
2018-01-02T11:33:40.083Z,87.33
2018-01-02T11:36:07.694Z,87.76
2018-01-02T11:38:35.399Z,87.64
2018-01-02T11:41:03.055Z,87.85
2018-01-02T11:43:31.086Z,88.17
2018-01-02T11:45:58.723Z,87.69
2018-01-02T11:48:26.720Z,87.84
2018-01-02T11:50:54.375Z,88.13
2018-01-02T11:53:21.985Z,88.15
2018-01-02T11:55:49.571Z,88.38
2018-01-02T11:58:17.183Z,88.10
2018-01-02T12:00:44.817Z,88.51
2018-01-02T12:03:12.448Z,88.33
2018-01-02T12:05:40.069Z,88.01
2018-01-02T12:08:07.688Z,87.71
2018-01-02T12:10:35.410Z,87.51
2018-01-02T12:13:03.090Z,87.53
2018-01-02T12:15:30.728Z,86.75
2018-01-02T12:17:58.334Z,87.02
2018-01-02T12:20:26.344Z,86.43
2018-01-02T12:22:53.983Z,86.71
2018-01-02T12:25:21.579Z,86.82
2018-01-02T12:27:49.229Z,87.18
2018-01-02T12:30:16.844Z,87.34
2018-01-02T12:32:44.456Z,87.37
2018-01-02T12:35:12.268Z,86.82
2018-01-02T12:37:39.872Z,86.05
2018-01-02T12:40:07.847Z,85.56
2018-01-02T12:42:35.448Z,84.55
2018-01-02T12:45:03.064Z,84.93
2018-01-02T12:47:30.724Z,85.08
2018-01-02T12:49:58.329Z,85.33
2018-01-02T12:52:26.092Z,86.12
2018-01-02T12:54:53.711Z,85.78
2018-01-02T12:57:21.376Z,86.26
2018-01-02T12:59:48.994Z,85.87
2018-01-02T13:02:16.593Z,85.64
2018-01-02T13:04:44.265Z,85.56
2018-01-02T13:07:12.152Z,85.36
2018-01-02T13:09:39.759Z,84.44
2018-01-02T13:12:07.365Z,85.34
2018-01-02T13:14:35.004Z,85.18
2018-01-02T13:17:03.232Z,85.10
2018-01-02T13:19:30.842Z,85.58
2018-01-02T13:21:58.449Z,85.62
2018-01-02T13:24:26.327Z,85.73
2018-01-02T13:26:53.971Z,85.71
2018-01-02T13:29:21.944Z,85.83
2018-01-02T13:31:49.531Z,85.49
2018-01-02T13:34:17.201Z,85.18
2018-01-02T13:36:44.823Z,84.54
2018-01-02T13:39:12.416Z,84.88
2018-01-02T13:41:40.350Z,84.87
2018-01-02T13:44:07.944Z,85.27
2018-01-02T13:46:35.552Z,85.10
2018-01-02T13:49:03.188Z,85.35
2018-01-02T13:51:30.818Z,85.17
2018-01-02T13:53:58.459Z,85.13
2018-01-02T13:56:26.074Z,85.05
2018-01-02T13:58:53.760Z,85.04
2018-01-02T14:01:21.753Z,84.78
2018-01-02T14:03:49.343Z,84.71
2018-01-02T14:06:17.001Z,84.89
2018-01-02T14:08:44.612Z,84.84
2018-01-02T14:11:12.252Z,85.15
2018-01-02T14:13:39.884Z,85.20
2018-01-02T14:16:07.543Z,85.10
2018-01-02T14:18:35.181Z,84.07
2018-01-02T14:21:02.768Z,84.00
2018-01-02T14:23:30.408Z,84.07
2018-01-02T14:25:58.051Z,83.17
2018-01-02T14:28:26.049Z,83.45
2018-01-02T14:30:53.743Z,84.00
2018-01-02T14:33:21.360Z,84.28
2018-01-02T14:35:48.965Z,84.02
2018-01-02T14:38:16.588Z,83.89
2018-01-02T14:40:44.208Z,84.22
2018-01-02T14:43:11.879Z,84.25
2018-01-02T14:45:39.539Z,84.24
2018-01-02T14:48:07.243Z,84.63
2018-01-02T14:50:34.881Z,84.28
2018-01-02T14:53:02.508Z,84.65
2018-01-02T14:55:30.157Z,84.27
2018-01-02T14:57:57.816Z,84.30
2018-01-02T15:00:25.422Z,84.17
2018-01-02T15:02:53.041Z,84.33
2018-01-02T15:05:20.654Z,84.59
2018-01-02T15:07:48.561Z,84.83
2018-01-02T15:10:16.173Z,85.07
2018-01-02T15:12:43.813Z,85.36
2018-01-02T15:15:11.754Z,86.22
2018-01-02T15:17:39.372Z,86.50
2018-01-02T15:20:07.025Z,86.94
2018-01-02T15:22:34.628Z,86.89
2018-01-02T15:25:02.978Z,87.11
2018-01-02T15:27:30.623Z,86.94
2018-01-02T15:29:58.230Z,87.67
2018-01-02T15:32:25.893Z,86.51
2018-01-02T15:34:53.739Z,86.20
2018-01-02T15:37:21.375Z,86.58
2018-01-02T15:39:48.996Z,86.37
2018-01-02T15:42:16.859Z,87.03
2018-01-02T15:44:44.514Z,87.35
2018-01-02T15:47:12.136Z,87.76
2018-01-02T15:49:39.840Z,88.02
2018-01-02T15:52:07.481Z,88.15
2018-01-02T15:54:35.104Z,88.28
2018-01-02T15:57:02.732Z,88.39
2018-01-02T15:59:30.328Z,88.46
2018-01-02T16:01:58.273Z,88.50
2018-01-02T16:04:25.923Z,88.98
2018-01-02T16:06:53.559Z,89.18
2018-01-02T16:09:21.202Z,89.25
2018-01-02T16:11:48.795Z,89.25
2018-01-02T16:14:16.471Z,89.05
2018-01-02T16:16:44.114Z,89.15
2018-01-02T16:19:11.724Z,89.07
2018-01-02T16:21:39.371Z,88.74
2018-01-02T16:24:06.989Z,88.58
2018-01-02T16:26:34.911Z,88.17
2018-01-02T16:29:02.585Z,88.30
2018-01-02T16:31:30.220Z,88.13
2018-01-02T16:33:57.856Z,88.01
2018-01-02T16:36:25.460Z,87.74
2018-01-02T16:38:53.070Z,87.63
2018-01-02T16:41:20.693Z,87.42
2018-01-02T16:43:49.055Z,87.20
2018-01-02T16:46:16.721Z,87.32
2018-01-02T16:48:44.586Z,87.19
2018-01-02T16:51:12.558Z,86.77
2018-01-02T16:53:40.198Z,86.77
2018-01-02T16:56:07.830Z,86.60
2018-01-02T16:58:35.486Z,86.33
2018-01-02T17:01:03.423Z,86.58
2018-01-02T17:03:31.025Z,86.18
2018-01-02T17:05:58.665Z,86.28
2018-01-02T17:08:26.283Z,86.25
2018-01-02T17:10:53.932Z,85.75
2018-01-02T17:13:21.569Z,86.06
2018-01-02T17:15:49.173Z,86.06
2018-01-02T17:18:16.779Z,86.11
2018-01-02T17:20:44.419Z,86.24
2018-01-02T17:23:12.485Z,86.35
2018-01-02T17:25:40.093Z,86.38
2018-01-02T17:28:07.793Z,86.10
2018-01-02T17:30:35.389Z,86.14
2018-01-02T17:33:03.045Z,86.27
2018-01-02T17:35:30.737Z,86.33
2018-01-02T17:37:58.664Z,86.66
2018-01-02T17:40:26.304Z,86.73
2018-01-02T17:42:53.898Z,86.41
2018-01-02T17:45:21.581Z,86.42
2018-01-02T17:47:49.236Z,86.38
2018-01-02T17:50:17.088Z,86.43
2018-01-02T17:52:44.747Z,86.42
2018-01-02T17:55:12.356Z,86.62
2018-01-02T17:57:40.021Z,86.46
2018-01-02T18:00:07.665Z,86.49
2018-01-02T18:02:35.613Z,86.06
2018-01-02T18:05:03.285Z,86.08
2018-01-02T18:07:30.996Z,85.88
2018-01-02T18:09:58.715Z,86.07
2018-01-02T18:12:26.366Z,86.11
2018-01-02T18:14:53.964Z,86.35
2018-01-02T18:17:21.598Z,86.28
2018-01-02T18:19:49.237Z,86.58
2018-01-02T18:22:16.883Z,86.48
2018-01-02T18:24:44.620Z,86.70
2018-01-02T18:27:12.292Z,86.86
2018-01-02T18:29:40.410Z,87.00
2018-01-02T18:32:08.024Z,86.96
2018-01-02T18:34:35.936Z,86.77
2018-01-02T18:37:03.548Z,86.58
2018-01-02T18:39:31.578Z,86.61
2018-01-02T18:41:59.398Z,86.65
2018-01-02T18:44:27.011Z,86.67
2018-01-02T18:46:54.665Z,87.29
2018-01-02T18:49:22.263Z,87.30
2018-01-02T18:51:50.198Z,87.24
2018-01-02T18:54:19.492Z,87.06
2018-01-02T18:56:47.111Z,87.05
2018-01-02T18:59:14.764Z,87.04
2018-01-02T19:01:42.369Z,86.85
2018-01-02T19:04:09.966Z,86.73
2018-01-02T19:06:37.751Z,86.96
2018-01-02T19:09:05.510Z,86.71
2018-01-02T19:11:33.553Z,86.75
2018-01-02T19:14:01.434Z,86.45
2018-01-02T19:16:29.113Z,86.26
2018-01-02T19:18:56.730Z,86.29
2018-01-02T19:21:24.409Z,86.54
2018-01-02T19:23:52.481Z,86.27
2018-01-02T19:26:20.359Z,86.26
2018-01-02T19:28:47.989Z,86.23
2018-01-02T19:31:15.629Z,85.95
2018-01-02T19:33:43.812Z,85.95
2018-01-02T19:38:45.210Z,85.73
2018-01-02T19:41:13.302Z,85.73
2018-01-02T19:43:40.958Z,85.48
2018-01-02T19:46:08.555Z,85.45
2018-01-02T19:48:36.492Z,85.17
2018-01-02T19:51:04.114Z,84.83
2018-01-02T19:53:31.801Z,84.65
2018-01-02T19:55:59.491Z,84.65
2018-01-02T19:58:27.113Z,84.55
2018-01-02T20:00:54.798Z,84.46
2018-01-02T20:03:22.439Z,84.63
2018-01-02T20:05:50.446Z,84.43
2018-01-02T20:08:18.086Z,84.34
2018-01-02T20:10:45.680Z,84.14
2018-01-02T20:13:13.344Z,84.46
2018-01-02T20:15:40.969Z,84.67
2018-01-02T20:18:14.212Z,84.55
2018-01-02T20:20:41.852Z,84.45
2018-01-02T20:23:09.481Z,84.63
2018-01-02T20:25:37.140Z,84.94
2018-01-02T20:28:04.737Z,85.08
2018-01-02T20:30:32.404Z,85.43
2018-01-02T20:33:00.269Z,85.50
2018-01-02T20:35:27.899Z,85.45
2018-01-02T20:37:55.549Z,85.44
2018-01-02T20:40:23.480Z,85.48
2018-01-02T20:42:51.116Z,85.55
2018-01-02T20:45:19.090Z,85.29
2018-01-02T20:47:47.162Z,85.43
2018-01-02T20:50:14.804Z,85.23
2018-01-02T20:52:44.141Z,85.79
2018-01-02T20:55:12.024Z,85.85
2018-01-02T20:57:39.853Z,85.82
2018-01-02T21:00:07.445Z,85.99
2018-01-02T21:02:35.071Z,86.50
2018-01-02T21:05:02.917Z,86.62
2018-01-02T21:07:31.290Z,86.41
2018-01-02T21:09:58.903Z,86.43
2018-01-02T21:12:26.760Z,86.47
2018-01-02T21:14:54.378Z,86.55
2018-01-02T21:17:22.038Z,86.67
2018-01-02T21:19:49.690Z,86.66
2018-01-02T21:22:17.286Z,86.58
2018-01-02T21:24:44.896Z,86.51
2018-01-02T21:27:12.507Z,86.52
2018-01-02T21:29:40.108Z,86.42
2018-01-02T21:32:08.057Z,86.95
2018-01-02T21:34:35.648Z,87.02
2018-01-02T21:37:03.701Z,87.19
2018-01-02T21:39:31.397Z,87.09
2018-01-02T21:41:59.022Z,86.76
2018-01-02T21:44:26.656Z,87.36
2018-01-02T21:46:54.262Z,87.18
2018-01-02T21:49:22.112Z,87.07
2018-01-02T21:51:49.740Z,87.20
2018-01-02T21:54:17.381Z,87.49
2018-01-02T21:56:45.044Z,86.88
2018-01-02T21:59:12.912Z,86.84
2018-01-02T22:01:40.851Z,86.57
2018-01-02T22:04:08.467Z,86.32
2018-01-02T22:06:36.063Z,86.05
2018-01-02T22:09:04.131Z,85.66
2018-01-02T22:11:31.737Z,85.97
2018-01-02T22:13:59.563Z,85.11
2018-01-02T22:16:27.547Z,85.11
2018-01-02T22:18:55.155Z,85.44
2018-01-02T22:21:23.035Z,85.28
2018-01-02T22:23:50.924Z,84.95
2018-01-02T22:26:18.517Z,85.13
2018-01-02T22:28:46.154Z,85.00
2018-01-02T22:31:13.784Z,84.67
2018-01-02T22:33:41.419Z,84.77
2018-01-02T22:36:09.455Z,84.75
2018-01-02T22:38:37.049Z,84.86
2018-01-02T22:41:05.709Z,85.12
2018-01-02T22:43:33.316Z,85.01
2018-01-02T22:46:00.931Z,84.84
2018-01-02T22:48:28.539Z,84.60
2018-01-02T22:50:56.170Z,84.95
2018-01-02T22:53:23.760Z,84.84
2018-01-02T22:55:51.398Z,84.85
2018-01-02T22:58:19.024Z,84.79
2018-01-02T23:00:46.618Z,85.23
2018-01-02T23:03:14.259Z,85.15
2018-01-02T23:05:41.837Z,85.08
2018-01-02T23:08:09.467Z,85.05
2018-01-02T23:10:37.072Z,85.68
2018-01-02T23:13:04.742Z,86.22
2018-01-02T23:15:32.380Z,86.08
2018-01-02T23:18:00.014Z,86.04
2018-01-02T23:20:27.596Z,86.03
2018-01-02T23:22:55.212Z,85.85
2018-01-02T23:25:22.808Z,85.82
2018-01-02T23:27:50.436Z,85.89
2018-01-02T23:30:18.023Z,85.93
2018-01-02T23:32:45.605Z,85.86
2018-01-02T23:35:13.226Z,85.85
2018-01-02T23:37:40.824Z,86.18
2018-01-02T23:40:08.461Z,86.11
2018-01-02T23:42:36.094Z,85.86
2018-01-02T23:45:04.117Z,85.52
2018-01-02T23:47:31.755Z,85.10
2018-01-02T23:49:59.362Z,85.08
2018-01-02T23:52:27.009Z,85.17
2018-01-02T23:54:54.638Z,85.48
2018-01-02T23:57:22.228Z,85.13
2018-01-02T23:59:49.878Z,85.00
